Time;durP1;ratioP1;P1;durP2;ratioP2;P2;SDS_P1;SDS_P2;PMS_P1;PMS_P2;Temp;Humidity;BMP_temperature;BMP_pressure;BME280_temperature;BME280_humidity;BME280_pressure;Samples;Min_cycle;Max_cycle;Signal;HPM_P1;HPM_P2
2023/12/06 00:00:09;;;;;;;8.50;4.10;;;;;;;3.12;100.00;99789.91;5010365;28;20204;-72
2023/12/06 00:02:36;;;;;;;7.57;4.50;;;;;;;3.17;100.00;99787.44;5010211;28;20288;-75
2023/12/06 00:05:02;;;;;;;7.13;4.60;;;;;;;3.11;100.00;99795.97;5010434;28;20208;-73
2023/12/06 00:07:29;;;;;;;8.03;4.43;;;;;;;3.02;100.00;99786.09;5009348;28;20287;-72
2023/12/06 00:09:57;;;;;;;7.07;4.20;;;;;;;2.93;100.00;99767.50;5010071;28;20330;-72
2023/12/06 00:12:24;;;;;;;8.60;4.43;;;;;;;2.96;100.00;99770.22;5009811;28;20204;-74
2023/12/06 00:14:50;;;;;;;7.37;4.00;;;;;;;2.98;100.00;99780.72;5010565;28;20307;-77
2023/12/06 00:17:17;;;;;;;7.20;4.50;;;;;;;3.08;100.00;99788.03;5008405;28;20369;-74
2023/12/06 00:19:43;;;;;;;7.10;4.17;;;;;;;3.00;100.00;99792.13;4999431;28;20205;-72
2023/12/06 00:22:10;;;;;;;7.80;3.97;;;;;;;2.86;100.00;99781.22;5005620;28;20204;-75
2023/12/06 00:24:37;;;;;;;7.20;4.30;;;;;;;2.92;100.00;99791.88;4992113;28;20226;-73
2023/12/06 00:27:04;;;;;;;5.83;3.50;;;;;;;2.92;100.00;99797.09;5009266;28;20212;-77
2023/12/06 00:29:31;;;;;;;6.73;4.17;;;;;;;2.86;100.00;99794.28;5009722;28;20572;-72
2023/12/06 00:31:57;;;;;;;8.27;4.57;;;;;;;2.92;100.00;99791.88;5010311;28;20218;-72
2023/12/06 00:34:23;;;;;;;6.27;4.27;;;;;;;2.93;100.00;99801.50;5009760;28;20205;-75
2023/12/06 00:36:50;;;;;;;6.90;3.83;;;;;;;2.91;100.00;99794.44;5001988;28;20279;-73
2023/12/06 00:39:16;;;;;;;7.87;4.17;;;;;;;2.94;100.00;99797.16;5009493;28;20208;-74
2023/12/06 00:41:45;;;;;;;6.27;4.10;;;;;;;3.00;100.00;99803.47;5009794;28;20262;-72
2023/12/06 00:44:11;;;;;;;6.27;4.00;;;;;;;3.00;100.00;99807.81;5008558;28;20671;-72
2023/12/06 00:46:38;;;;;;;6.63;4.07;;;;;;;2.99;100.00;99806.94;5009658;28;20251;-76
2023/12/06 00:49:05;;;;;;;7.40;4.47;;;;;;;3.06;100.00;99805.41;5009400;28;20640;-75
2023/12/06 00:51:31;;;;;;;6.77;3.70;;;;;;;3.19;100.00;99804.06;5007270;28;20205;-72
2023/12/06 00:53:57;;;;;;;5.80;3.80;;;;;;;3.09;100.00;99805.50;5004851;28;20215;-72
2023/12/06 00:56:24;;;;;;;7.47;4.30;;;;;;;3.08;100.00;99808.97;5009523;28;20665;-72
2023/12/06 00:58:50;;;;;;;5.73;3.73;;;;;;;3.19;100.00;99814.53;5005825;28;20280;-72
2023/12/06 01:01:17;;;;;;;6.60;3.80;;;;;;;3.13;100.00;99812.63;5009384;28;20200;-78
2023/12/06 01:03:43;;;;;;;6.93;4.47;;;;;;;3.11;100.00;99811.66;5004682;28;20231;-73
2023/12/06 01:06:10;;;;;;;5.60;3.97;;;;;;;3.10;100.00;99813.41;5009262;28;20228;-73
2023/12/06 01:08:36;;;;;;;4.80;3.50;;;;;;;3.09;100.00;99822.09;5008989;28;20211;-72
2023/12/06 01:11:03;;;;;;;5.40;3.83;;;;;;;3.06;100.00;99816.75;5008891;28;20196;-75
2023/12/06 01:13:29;;;;;;;5.50;3.70;;;;;;;3.14;100.00;99819.63;5002721;28;20427;-75
2023/12/06 01:15:56;;;;;;;6.90;4.30;;;;;;;3.12;100.00;99821.31;5009516;28;20228;-73
2023/12/06 01:18:22;;;;;;;7.57;3.73;;;;;;;3.09;100.00;99819.47;5008899;28;20562;-72
2023/12/06 01:20:49;;;;;;;6.07;3.73;;;;;;;3.08;100.00;99822.03;5007255;28;20278;-72
2023/12/06 01:23:15;;;;;;;7.90;3.90;;;;;;;3.11;100.00;99823.03;5006506;28;20307;-74
2023/12/06 01:25:42;;;;;;;7.63;3.77;;;;;;;3.12;100.00;99831.75;5008454;28;20224;-72
2023/12/06 01:28:08;;;;;;;5.30;3.43;;;;;;;3.17;100.00;99838.03;5008200;28;20207;-74
2023/12/06 01:30:34;;;;;;;5.47;3.80;;;;;;;3.15;100.00;99824.03;5007657;28;20231;-73
2023/12/06 01:33:01;;;;;;;5.50;3.77;;;;;;;3.22;100.00;99838.22;5006254;28;20552;-72
2023/12/06 01:35:27;;;;;;;5.97;4.00;;;;;;;3.26;100.00;99837.47;5008637;28;20262;-73
2023/12/06 01:37:56;;;;;;;6.20;3.67;;;;;;;3.24;100.00;99847.91;5009256;28;20220;-72
2023/12/06 01:40:22;;;;;;;5.63;3.73;;;;;;;3.21;100.00;99833.81;5008390;28;20255;-72
2023/12/06 01:42:50;;;;;;;6.20;3.77;;;;;;;3.22;100.00;99827.75;5007913;28;20212;-76
2023/12/06 01:45:16;;;;;;;6.00;3.50;;;;;;;3.25;100.00;99841.81;4991085;28;20203;-72
2023/12/06 01:47:43;;;;;;;6.87;3.83;;;;;;;3.29;100.00;99842.81;5008944;28;20211;-72
2023/12/06 01:50:11;;;;;;;5.57;3.53;;;;;;;3.29;100.00;99840.19;5005344;28;20215;-73
2023/12/06 01:52:38;;;;;;;8.50;4.57;;;;;;;3.38;100.00;99840.50;5008317;28;20210;-75
2023/12/06 01:55:08;;;;;;;8.00;4.40;;;;;;;3.40;100.00;99857.13;5008784;28;20204;-72
2023/12/06 01:57:36;;;;;;;8.47;5.13;;;;;;;3.39;100.00;99847.50;5007802;28;20880;-72
2023/12/06 02:00:04;;;;;;;7.03;4.60;;;;;;;3.35;100.00;99841.28;5006919;28;20680;-72
2023/12/06 02:02:30;;;;;;;8.43;5.00;;;;;;;3.56;100.00;99856.78;5006617;28;20200;-75
2023/12/06 02:04:57;;;;;;;7.27;4.27;;;;;;;3.55;100.00;99856.75;5008959;28;20601;-72
2023/12/06 02:07:24;;;;;;;8.03;4.37;;;;;;;3.63;100.00;99861.41;5008581;28;20224;-72
2023/12/06 02:09:51;;;;;;;12.17;6.03;;;;;;;3.59;100.00;99856.88;5008192;28;20302;-75
2023/12/06 02:12:17;;;;;;;11.40;5.13;;;;;;;3.47;100.00;99852.16;5010499;28;20212;-78
2023/12/06 02:14:44;;;;;;;8.80;4.97;;;;;;;3.45;100.00;99860.78;5010918;28;20211;-72
2023/12/06 02:17:11;;;;;;;7.37;4.53;;;;;;;3.46;100.00;99849.47;5008302;28;20307;-76
2023/12/06 02:19:39;;;;;;;5.33;3.73;;;;;;;3.52;100.00;99860.16;5003975;28;20208;-72
2023/12/06 02:22:07;;;;;;;5.93;3.27;;;;;;;3.38;100.00;99850.97;4989075;28;20587;-72
2023/12/06 02:24:35;;;;;;;5.27;3.30;;;;;;;3.26;100.00;99848.84;5006286;28;20558;-72
2023/12/06 02:27:01;;;;;;;5.33;2.97;;;;;;;3.24;100.00;99853.13;5007269;28;20299;-75
2023/12/06 02:29:28;;;;;;;5.63;3.43;;;;;;;3.19;100.00;99856.41;4985594;28;20688;-72
2023/12/06 02:31:54;;;;;;;5.33;3.30;;;;;;;3.11;100.00;99845.69;5004574;28;20267;-76
2023/12/06 02:34:25;;;;;;;4.70;3.20;;;;;;;3.08;100.00;99848.19;5008182;28;20242;-73
2023/12/06 02:36:55;;;;;;;7.33;3.13;;;;;;;3.14;100.00;99849.28;5007558;28;20700;-72
2023/12/06 02:39:22;;;;;;;6.43;2.93;;;;;;;3.26;100.00;99858.41;5008052;28;20199;-76
2023/12/06 02:41:48;;;;;;;4.87;2.97;;;;;;;3.18;100.00;99844.16;5011635;28;20664;-75
2023/12/06 02:44:14;;;;;;;5.30;2.80;;;;;;;3.24;100.00;99852.25;5011729;28;20403;-72
2023/12/06 02:46:41;;;;;;;5.27;2.97;;;;;;;3.26;100.00;99842.72;4994017;28;20299;-75
2023/12/06 02:49:08;;;;;;;6.30;3.17;;;;;;;3.27;100.00;99850.63;5011959;28;20200;-72
2023/12/06 02:51:34;;;;;;;4.40;3.10;;;;;;;3.20;100.00;99847.72;5011262;28;20661;-73
2023/12/06 02:54:01;;;;;;;6.33;3.43;;;;;;;3.19;100.00;99862.53;5012223;28;20204;-73
2023/12/06 02:56:27;;;;;;;5.53;3.10;;;;;;;3.17;100.00;99858.06;5011316;28;20595;-74
2023/12/06 02:58:54;;;;;;;6.27;3.17;;;;;;;3.08;100.00;99849.09;5011801;28;20204;-72
2023/12/06 03:01:20;;;;;;;4.67;2.90;;;;;;;3.13;100.00;99851.84;5010842;28;20203;-74
2023/12/06 03:03:47;;;;;;;5.73;3.13;;;;;;;3.15;100.00;99872.00;5011202;28;20668;-75
2023/12/06 03:06:13;;;;;;;4.43;3.00;;;;;;;3.11;100.00;99864.88;5009167;28;20228;-76
2023/12/06 03:08:40;;;;;;;5.60;2.90;;;;;;;3.10;100.00;99873.56;5011377;28;20258;-73
2023/12/06 03:11:06;;;;;;;4.83;2.77;;;;;;;3.08;100.00;99870.00;5011737;28;20258;-72
2023/12/06 03:13:32;;;;;;;3.67;2.63;;;;;;;3.08;100.00;99866.50;5010886;28;20211;-72
2023/12/06 03:15:59;;;;;;;4.60;2.93;;;;;;;3.17;100.00;99863.31;5011249;28;20228;-74
2023/12/06 03:18:26;;;;;;;7.77;2.90;;;;;;;3.15;100.00;99858.91;5010658;28;20224;-72
2023/12/06 03:20:53;;;;;;;5.10;3.00;;;;;;;3.22;100.00;99861.78;5011979;28;20270;-72
2023/12/06 03:23:19;;;;;;;4.27;2.57;;;;;;;3.21;100.00;99866.13;5009546;28;20204;-73
2023/12/06 03:25:46;;;;;;;4.03;2.70;;;;;;;3.26;100.00;99866.25;5009869;28;20287;-75
2023/12/06 03:28:12;;;;;;;4.60;3.10;;;;;;;3.29;100.00;99866.38;5010371;28;20204;-72
2023/12/06 03:30:39;;;;;;;4.03;3.00;;;;;;;3.35;100.00;99864.84;5010764;28;20618;-72
2023/12/06 03:33:05;;;;;;;4.10;2.83;;;;;;;3.44;100.00;99874.72;5011527;28;20266;-72
2023/12/06 03:35:32;;;;;;;4.67;2.90;;;;;;;3.39;100.00;99877.19;5010014;28;20307;-74
2023/12/06 03:37:58;;;;;;;4.60;2.87;;;;;;;3.40;100.00;99870.22;5010591;28;20244;-75
2023/12/06 03:40:25;;;;;;;3.73;2.40;;;;;;;3.35;100.00;99877.94;5010438;28;20744;-72
2023/12/06 03:42:51;;;;;;;5.00;2.93;;;;;;;3.34;100.00;99875.25;5011073;28;20201;-71
2023/12/06 03:45:18;;;;;;;5.03;3.33;;;;;;;3.40;100.00;99872.84;5009508;28;20657;-72
2023/12/06 03:47:45;;;;;;;4.23;2.80;;;;;;;3.35;100.00;99863.94;5010504;28;20672;-74
2023/12/06 03:50:11;;;;;;;3.93;2.60;;;;;;;3.44;100.00;99885.19;5011216;28;20210;-72
2023/12/06 03:52:38;;;;;;;3.73;2.80;;;;;;;3.44;100.00;99893.03;5008068;28;20263;-73
2023/12/06 03:55:04;;;;;;;4.83;2.70;;;;;;;3.39;100.00;99877.19;5010186;28;20200;-80
2023/12/06 03:57:31;;;;;;;5.57;2.87;;;;;;;3.39;100.00;99892.00;5010225;28;20591;-72
2023/12/06 03:59:57;;;;;;;4.37;2.47;;;;;;;3.38;100.00;99890.22;5008177;28;20236;-75
2023/12/06 04:02:24;;;;;;;6.83;3.33;;;;;;;3.35;100.00;99893.63;5010459;28;20207;-80
2023/12/06 04:04:50;;;;;;;4.37;2.70;;;;;;;3.45;100.00;99895.72;5010573;28;20224;-72
2023/12/06 04:07:16;;;;;;;4.67;2.83;;;;;;;3.54;100.00;99896.84;5009952;28;20220;-76
2023/12/06 04:09:43;;;;;;;3.83;2.53;;;;;;;3.46;100.00;99899.22;5009351;28;20210;-73
2023/12/06 04:12:09;;;;;;;6.73;3.10;;;;;;;3.46;100.00;99896.59;5010198;28;20236;-72
2023/12/06 04:14:36;;;;;;;4.83;3.20;;;;;;;3.41;100.00;99901.69;5010131;28;20238;-72
2023/12/06 04:17:02;;;;;;;4.10;2.60;;;;;;;3.38;100.00;99900.69;5039428;23;20227;-75
2023/12/06 04:19:33;;;;;;;4.40;2.83;;;;;;;3.32;100.00;99901.38;5021220;28;20637;-74
2023/12/06 04:22:00;;;;;;;4.23;3.10;;;;;;;3.32;100.00;99898.75;5039081;28;20223;-74
2023/12/06 04:24:26;;;;;;;5.43;2.90;;;;;;;3.32;100.00;99903.09;5040432;28;20297;-74
2023/12/06 04:26:52;;;;;;;4.10;2.70;;;;;;;3.30;100.00;99910.91;5032585;28;20414;-74
2023/12/06 04:29:19;;;;;;;4.70;2.80;;;;;;;3.33;100.00;99907.50;5037271;28;20200;-74
2023/12/06 04:31:45;;;;;;;5.27;3.17;;;;;;;3.32;100.00;99921.44;5035218;28;20203;-74
2023/12/06 04:34:13;;;;;;;4.17;2.83;;;;;;;3.37;100.00;99910.28;5030521;28;20212;-74
2023/12/06 04:36:40;;;;;;;6.80;2.93;;;;;;;3.31;100.00;99919.66;5029342;28;20248;-74
2023/12/06 04:39:06;;;;;;;4.50;2.97;;;;;;;3.31;100.00;99912.69;5030472;28;20205;-74
2023/12/06 04:41:33;;;;;;;6.37;3.37;;;;;;;3.30;100.00;99912.63;5036269;28;20204;-74
2023/12/06 04:43:59;;;;;;;4.37;2.93;;;;;;;3.38;100.00;99921.63;5032340;28;20231;-74
2023/12/06 04:46:26;;;;;;;5.47;3.80;;;;;;;3.44;100.00;99920.09;5032320;28;20219;-74
2023/12/06 04:48:52;;;;;;;7.70;3.70;;;;;;;3.42;100.00;99913.94;5033960;28;20257;-73
2023/12/06 04:51:19;;;;;;;7.40;3.77;;;;;;;3.32;100.00;99917.06;5026877;28;20586;-73
2023/12/06 04:53:45;;;;;;;5.70;3.57;;;;;;;3.29;100.00;99929.16;5034846;28;20265;-75
2023/12/06 04:56:12;;;;;;;7.10;3.80;;;;;;;3.28;100.00;99922.16;5030989;28;20247;-75
2023/12/06 04:58:38;;;;;;;6.37;3.77;;;;;;;3.31;100.00;99930.13;5034548;28;20755;-73
2023/12/06 05:01:05;;;;;;;6.53;3.90;;;;;;;3.25;100.00;99929.91;5030430;28;20326;-74
2023/12/06 05:03:32;;;;;;;6.13;3.70;;;;;;;3.25;100.00;99936.03;5035428;28;20247;-74
2023/12/06 05:05:58;;;;;;;5.20;3.40;;;;;;;3.27;100.00;99939.59;5034186;28;20243;-74
2023/12/06 05:08:24;;;;;;;5.70;3.40;;;;;;;3.26;100.00;99937.81;5027092;28;20203;-74
2023/12/06 05:10:52;;;;;;;5.20;3.37;;;;;;;3.36;100.00;99945.13;5035399;28;20233;-74
2023/12/06 05:13:18;;;;;;;6.97;4.10;;;;;;;3.36;100.00;99945.13;5029910;28;20207;-73
2023/12/06 05:15:44;;;;;;;6.03;3.73;;;;;;;3.42;100.00;99949.69;5030687;28;20238;-73
2023/12/06 05:18:11;;;;;;;6.30;4.27;;;;;;;3.47;100.00;99956.84;5033667;28;20253;-75
2023/12/06 05:20:38;;;;;;;8.83;4.20;;;;;;;3.51;100.00;99950.00;5032855;28;20203;-74
2023/12/06 05:23:04;;;;;;;7.50;3.90;;;;;;;3.55;100.00;99957.13;5028888;28;20219;-74
2023/12/06 05:25:32;;;;;;;7.97;4.37;;;;;;;3.59;100.00;99964.22;5034642;28;20200;-74
2023/12/06 05:27:59;;;;;;;7.83;3.80;;;;;;;3.55;100.00;99970.19;5023583;28;20713;-73
2023/12/06 05:30:25;;;;;;;6.73;3.90;;;;;;;3.62;100.00;99966.97;5027857;28;20195;-72
2023/12/06 05:32:51;;;;;;;6.80;4.07;;;;;;;3.65;100.00;99974.03;5025931;28;21640;-73
2023/12/06 05:35:18;;;;;;;7.77;3.67;;;;;;;3.69;100.00;99981.16;5030725;28;20213;-73
2023/12/06 05:37:44;;;;;;;6.20;3.47;;;;;;;3.68;100.00;99971.53;5033560;28;20215;-73
2023/12/06 05:40:12;;;;;;;8.13;3.60;;;;;;;3.67;100.00;99983.72;5031704;28;20583;-73
2023/12/06 05:42:39;;;;;;;7.50;3.93;;;;;;;3.59;100.00;99982.56;5033132;28;20584;-72
2023/12/06 05:45:06;;;;;;;8.47;4.00;;;;;;;3.57;100.00;99989.47;5031162;28;20195;-73
2023/12/06 05:47:32;;;;;;;7.83;3.37;;;;;;;3.52;100.00;99980.56;5034660;28;20285;-73
2023/12/06 05:49:59;;;;;;;4.57;2.53;;;;;;;3.54;100.00;99976.28;5033927;28;20211;-73
2023/12/06 05:52:25;;;;;;;6.97;2.83;;;;;;;3.55;100.00;99985.03;5034746;28;20206;-73
2023/12/06 05:54:52;;;;;;;6.50;3.17;;;;;;;3.55;100.00;99977.16;5028050;28;20294;-72
2023/12/06 05:57:18;;;;;;;5.50;3.10;;;;;;;3.51;100.00;99989.25;5029538;28;20226;-73
2023/12/06 05:59:45;;;;;;;6.43;3.33;;;;;;;3.55;100.00;99987.63;5028691;28;20212;-73
2023/12/06 06:02:11;;;;;;;6.20;3.23;;;;;;;3.51;100.00;99986.66;5032464;28;20268;-73
2023/12/06 06:04:38;;;;;;;4.37;3.10;;;;;;;3.44;100.00;99988.16;5033206;28;20234;-74
2023/12/06 06:07:05;;;;;;;5.47;3.13;;;;;;;3.44;100.00;99989.88;5029425;28;20215;-73
2023/12/06 06:09:31;;;;;;;6.37;3.40;;;;;;;3.38;100.00;99998.41;5028549;28;20253;-73
2023/12/06 06:11:59;;;;;;;6.23;3.73;;;;;;;3.32;100.00;99998.22;5025365;28;20235;-73
2023/12/06 06:14:25;;;;;;;7.20;4.17;;;;;;;3.37;100.00;100006.22;5032461;28;20205;-74
2023/12/06 06:16:52;;;;;;;5.70;3.67;;;;;;;3.36;100.00;100010.56;5051254;28;20230;-73
2023/12/06 06:19:19;;;;;;;6.33;3.33;;;;;;;3.33;100.00;100023.53;5052351;28;20215;-73
2023/12/06 06:21:45;;;;;;;8.60;4.17;;;;;;;3.26;100.00;100023.25;5053309;28;20202;-75
2023/12/06 06:24:12;;;;;;;6.60;3.57;;;;;;;3.23;100.00;100024.03;5056200;28;20241;-74
2023/12/06 06:26:38;;;;;;;6.80;3.43;;;;;;;3.18;100.00;100022.06;5056298;28;20335;-73
2023/12/06 06:29:06;;;;;;;7.07;3.83;;;;;;;3.19;100.00;100027.34;5050714;28;20208;-73
2023/12/06 06:31:32;;;;;;;5.90;3.30;;;;;;;3.11;100.00;100031.41;5023581;28;20288;-72
2023/12/06 06:34:01;;;;;;;7.57;3.67;;;;;;;3.07;100.00;100037.38;5043990;28;20213;-72
2023/12/06 06:36:28;;;;;;;6.43;3.60;;;;;;;3.02;100.00;100044.16;5028881;28;20272;-73
2023/12/06 06:38:55;;;;;;;7.80;3.83;;;;;;;2.93;100.00;100047.31;5047382;28;20218;-72
2023/12/06 06:41:24;;;;;;;7.73;4.30;;;;;;;2.91;100.00;100050.72;5043991;28;20658;-72
2023/12/06 06:43:53;;;;;;;8.63;4.10;;;;;;;2.90;100.00;100056.78;5017781;28;20216;-71
2023/12/06 06:46:19;;;;;;;7.97;4.20;;;;;;;2.88;100.00;100054.09;5047598;28;20222;-72
2023/12/06 06:48:46;;;;;;;7.80;3.77;;;;;;;2.83;100.00;100053.03;5047981;28;20523;-72
2023/12/06 06:51:13;;;;;;;8.17;3.90;;;;;;;2.77;100.00;100056.28;5042501;28;20251;-70
2023/12/06 06:53:39;;;;;;;7.53;3.70;;;;;;;2.76;100.00;100062.34;5048078;28;20206;-72
2023/12/06 06:56:06;;;;;;;6.97;3.97;;;;;;;2.69;100.00;100060.34;5047312;28;20311;-71
2023/12/06 06:58:32;;;;;;;6.93;3.77;;;;;;;2.70;100.00;100061.22;5027325;28;20324;-70
2023/12/06 07:00:59;;;;;;;6.43;3.53;;;;;;;2.70;100.00;100074.28;5019809;28;20294;-70
2023/12/06 07:03:26;;;;;;;7.43;3.57;;;;;;;2.70;100.00;100077.81;5040045;28;20708;-70
2023/12/06 07:05:52;;;;;;;6.83;3.70;;;;;;;2.66;100.00;100069.78;5019932;28;20713;-70
2023/12/06 07:08:19;;;;;;;6.60;3.33;;;;;;;2.69;100.00;100089.09;5031631;28;20259;-70
2023/12/06 07:10:48;;;;;;;6.80;3.33;;;;;;;2.69;100.00;100085.59;5024798;28;20213;-70
2023/12/06 07:13:14;;;;;;;7.27;3.43;;;;;;;2.71;100.00;100081.31;5042882;28;20204;-71
2023/12/06 07:15:41;;;;;;;6.03;3.43;;;;;;;2.73;100.00;100095.31;5042775;28;20311;-71
2023/12/06 07:18:07;;;;;;;7.27;4.20;;;;;;;2.71;100.00;100094.38;5042885;28;20632;-70
2023/12/06 07:20:35;;;;;;;8.57;3.63;;;;;;;2.72;100.00;100101.38;5043038;28;20672;-71
2023/12/06 07:23:12;;;;;;;6.27;3.20;;;;;;;2.74;100.00;100110.19;5046291;28;20227;-70
2023/12/06 07:25:38;;;;;;;6.73;3.87;;;;;;;2.74;100.00;100115.41;5045902;28;20238;-71
2023/12/06 07:28:05;;;;;;;8.40;3.83;;;;;;;2.75;100.00;100120.69;5024276;28;20209;-71
2023/12/06 07:30:32;;;;;;;7.70;4.03;;;;;;;2.75;100.00;100119.81;5043030;28;20200;-71
2023/12/06 07:32:59;;;;;;;6.47;3.67;;;;;;;2.75;100.00;100125.03;5047798;28;20218;-71
2023/12/06 07:35:25;;;;;;;8.40;4.17;;;;;;;2.72;100.00;100124.91;5030865;28;20261;-71
2023/12/06 07:37:52;;;;;;;8.10;4.20;;;;;;;2.73;100.00;100122.38;5045632;28;20219;-71
2023/12/06 07:40:19;;;;;;;8.30;4.33;;;;;;;2.79;100.00;100138.28;5037729;28;20201;-71
2023/12/06 07:42:45;;;;;;;9.00;4.77;;;;;;;2.74;100.00;100136.34;5025894;28;20297;-71
2023/12/06 07:45:12;;;;;;;8.60;4.43;;;;;;;2.83;100.00;100149.81;5022267;28;20312;-72
2023/12/06 07:47:39;;;;;;;7.13;3.53;;;;;;;2.87;100.00;100140.34;5042574;28;20226;-71
2023/12/06 07:50:07;;;;;;;10.63;4.73;;;;;;;2.86;100.00;100139.47;5041722;28;20215;-70
2023/12/06 07:52:34;;;;;;;8.13;4.00;;;;;;;2.88;100.00;100143.03;5044522;28;20208;-71
2023/12/06 07:55:02;;;;;;;11.20;5.00;;;;;;;2.87;100.00;100149.09;5039059;28;20227;-71
2023/12/06 07:57:29;;;;;;;6.90;4.20;;;;;;;2.81;100.00;100144.50;5023652;28;20228;-72
2023/12/06 07:59:55;;;;;;;6.80;4.20;;;;;;;2.87;100.00;100148.19;5045478;28;20231;-72
2023/12/06 08:02:22;;;;;;;8.40;4.43;;;;;;;2.87;100.00;100149.09;5044918;28;20209;-73
2023/12/06 08:04:48;;;;;;;9.80;4.47;;;;;;;2.87;100.00;100156.94;5037464;28;20767;-72
2023/12/06 08:07:15;;;;;;;8.03;4.00;;;;;;;2.89;100.00;100162.22;5035552;28;20216;-72
2023/12/06 08:09:42;;;;;;;6.10;3.93;;;;;;;2.90;100.00;100170.13;5042866;28;20201;-71
2023/12/06 08:12:08;;;;;;;7.83;3.77;;;;;;;2.86;100.00;100168.22;5047678;28;20672;-72
2023/12/06 08:14:35;;;;;;;8.23;4.53;;;;;;;2.87;100.00;100175.25;5025172;28;20203;-73
2023/12/06 08:17:01;;;;;;;9.57;4.50;;;;;;;2.84;100.00;100175.13;5042073;28;20224;-71
2023/12/06 08:19:28;;;;;;;8.50;4.43;;;;;;;2.92;100.00;100172.81;5046253;28;20221;-72
2023/12/06 08:21:55;;;;;;;9.57;4.47;;;;;;;2.89;100.00;100168.34;5026557;28;20670;-72
2023/12/06 08:24:21;;;;;;;9.03;4.97;;;;;;;2.91;100.00;100181.47;5022123;28;20252;-72
2023/12/06 08:26:48;;;;;;;12.50;5.20;;;;;;;2.93;100.00;100178.09;5020210;28;20233;-72
2023/12/06 08:29:14;;;;;;;14.07;5.47;;;;;;;2.99;100.00;100183.56;5043059;28;20199;-72
2023/12/06 08:31:41;;;;;;;11.37;5.83;;;;;;;3.05;100.00;100182.91;5041709;28;20210;-72
2023/12/06 08:34:08;;;;;;;11.67;5.50;;;;;;;3.08;100.00;100183.94;5021991;28;20234;-72
2023/12/06 08:36:34;;;;;;;12.33;5.63;;;;;;;3.21;100.00;100187.94;5029365;28;20273;-71
2023/12/06 08:39:01;;;;;;;12.40;6.30;;;;;;;3.25;100.00;100186.34;5025547;28;20257;-72
2023/12/06 08:41:27;;;;;;;10.87;6.27;;;;;;;3.34;100.00;100189.31;5029032;28;20644;-72
2023/12/06 08:43:53;;;;;;;11.97;5.73;;;;;;;3.40;100.00;100192.16;5044190;28;20203;-72
2023/12/06 08:46:20;;;;;;;10.67;5.00;;;;;;;3.43;100.00;100185.31;5040441;28;20313;-72
2023/12/06 08:48:46;;;;;;;10.87;5.80;;;;;;;3.52;100.00;100191.72;5046699;28;20599;-72
2023/12/06 08:51:13;;;;;;;9.03;5.30;;;;;;;3.47;100.00;100192.44;5045103;28;20253;-72
2023/12/06 08:53:40;;;;;;;10.03;5.43;;;;;;;3.52;100.00;100187.38;5048733;28;20329;-72
2023/12/06 08:56:07;;;;;;;14.47;6.40;;;;;;;3.58;100.00;100199.81;5046259;28;20506;-71
2023/12/06 08:58:33;;;;;;;12.00;5.73;;;;;;;3.66;100.00;100196.66;5045774;28;20347;-72
2023/12/06 09:01:00;;;;;;;10.67;5.83;;;;;;;3.72;100.00;100204.75;5027723;28;20202;-72
2023/12/06 09:03:26;;;;;;;12.30;6.27;;;;;;;3.74;100.00;100199.56;5043442;28;20199;-72
2023/12/06 09:05:55;;;;;;;13.43;5.83;;;;;;;3.73;100.00;100216.13;5025985;28;20253;-72
2023/12/06 09:08:21;;;;;;;10.87;5.90;;;;;;;3.71;100.00;100215.16;5030803;28;20667;-71
2023/12/06 09:10:49;;;;;;;11.23;5.20;;;;;;;3.66;100.00;100212.38;5043800;28;20285;-71
2023/12/06 09:13:16;;;;;;;12.33;5.57;;;;;;;3.67;100.00;100211.53;5045112;28;20202;-71
2023/12/06 09:15:43;;;;;;;9.80;6.17;;;;;;;3.78;100.00;100222.41;5046691;28;20234;-71
2023/12/06 09:18:10;;;;;;;10.80;5.50;;;;;;;3.78;100.00;100223.31;5048057;28;20265;-71
2023/12/06 09:20:36;;;;;;;11.53;5.73;;;;;;;3.75;100.00;100220.56;5045260;28;20203;-71
2023/12/06 09:23:05;;;;;;;11.07;5.90;;;;;;;3.75;100.00;100228.44;5042463;28;20232;-71
2023/12/06 09:25:36;;;;;;;13.50;6.63;;;;;;;3.65;100.00;100226.31;5028368;28;20239;-72
2023/12/06 09:28:06;;;;;;;13.57;5.80;;;;;;;3.68;100.00;100229.03;5045115;28;20236;-72
2023/12/06 09:30:32;;;;;;;11.77;5.90;;;;;;;3.83;100.00;100227.81;5046340;28;20199;-72
2023/12/06 09:32:59;;;;;;;13.57;6.40;;;;;;;3.97;100.00;100234.47;5049465;28;20582;-72
2023/12/06 09:35:25;;;;;;;13.67;6.27;;;;;;;4.01;100.00;100245.13;5047194;28;20210;-72
2023/12/06 09:37:52;;;;;;;12.00;5.80;;;;;;;3.90;100.00;100249.06;5040873;28;20206;-72
2023/12/06 09:40:19;;;;;;;12.67;5.60;;;;;;;3.95;100.00;100250.13;5042513;28;20233;-72
2023/12/06 09:42:51;;;;;;;11.50;5.87;;;;;;;3.90;100.00;100248.16;5023297;28;20203;-72
2023/12/06 09:45:19;;;;;;;10.33;5.07;;;;;;;3.86;100.00;100244.53;5044138;28;20304;-72
2023/12/06 09:47:45;;;;;;;13.37;5.93;;;;;;;3.84;100.00;100250.56;5022924;28;20203;-72
2023/12/06 09:50:11;;;;;;;12.67;6.27;;;;;;;3.89;100.00;100249.91;5040460;28;20253;-73
2023/12/06 09:52:38;;;;;;;11.37;5.83;;;;;;;3.91;100.00;100244.72;5043263;28;20201;-72
2023/12/06 09:55:05;;;;;;;11.37;6.20;;;;;;;3.95;100.00;100249.22;5028969;28;20199;-72
2023/12/06 09:57:31;;;;;;;11.33;5.83;;;;;;;4.01;100.00;100259.97;5050441;28;20593;-73
2023/12/06 09:59:58;;;;;;;10.97;5.67;;;;;;;4.01;100.00;100260.84;5045270;28;20313;-70
2023/12/06 10:02:24;;;;;;;13.27;5.83;;;;;;;3.99;100.00;100257.25;5045828;28;20343;-73
2023/12/06 10:04:53;;;;;;;11.30;5.90;;;;;;;4.10;100.00;100260.31;5036766;28;20576;-72
2023/12/06 10:07:20;;;;;;;9.70;5.27;;;;;;;4.16;100.00;100257.91;5049822;28;20280;-72
2023/12/06 10:09:51;;;;;;;11.90;5.73;;;;;;;4.26;100.00;100267.88;5052641;28;20191;-72
2023/12/06 10:12:17;;;;;;;11.90;6.07;;;;;;;4.32;100.00;100265.47;5047458;28;20517;-72
2023/12/06 10:14:44;;;;;;;10.00;5.60;;;;;;;4.33;100.00;100277.75;5052748;28;20206;-73
2023/12/06 10:17:13;;;;;;;9.53;5.17;;;;;;;4.30;100.00;100281.97;5070327;23;20221;-71
2023/12/06 10:19:39;;;;;;;10.50;5.43;;;;;;;4.32;100.00;100288.19;5054229;28;20210;-71
2023/12/06 10:22:07;;;;;;;10.10;5.20;;;;;;;4.35;100.00;100289.19;5054156;28;20202;-72
2023/12/06 10:24:41;;;;;;;8.33;4.87;;;;;;;4.40;100.00;100286.72;5043780;28;20570;-71
2023/12/06 10:27:11;;;;;;;8.83;5.30;;;;;;;4.39;100.00;100285.81;5058518;28;20228;-69
2023/12/06 10:29:38;;;;;;;9.80;5.80;;;;;;;4.37;100.00;100284.88;5055029;28;20667;-69
2023/12/06 10:32:06;;;;;;;11.60;5.83;;;;;;;4.40;100.00;100294.59;5062098;28;20281;-70
2023/12/06 10:34:34;;;;;;;8.90;4.83;;;;;;;4.39;100.00;100291.06;5055604;28;20207;-68
2023/12/06 10:37:01;;;;;;;10.03;5.43;;;;;;;4.28;100.00;100289.78;5052376;28;20434;-67
2023/12/06 10:39:30;;;;;;;8.83;4.90;;;;;;;4.30;100.00;100292.47;5050831;28;20219;-71
2023/12/06 10:42:02;;;;;;;8.97;5.30;;;;;;;4.41;100.00;100299.03;5047607;28;20203;-69
2023/12/06 10:44:30;;;;;;;9.50;5.60;;;;;;;4.43;100.00;100294.72;5055403;28;20666;-68
2023/12/06 10:47:00;;;;;;;11.23;5.97;;;;;;;4.46;100.00;100297.47;5056685;28;20218;-68
2023/12/06 10:49:36;;;;;;;8.13;4.90;;;;;;;4.45;100.00;100295.66;5048992;28;20682;-72
2023/12/06 10:52:08;;;;;;;8.93;4.47;;;;;;;4.36;100.00;100292.69;5057644;28;20198;-69
2023/12/06 10:54:35;;;;;;;9.37;5.00;;;;;;;4.39;100.00;100292.78;5053515;28;20209;-70
2023/12/06 10:57:03;;;;;;;9.40;5.23;;;;;;;4.36;100.00;100290.06;5053273;28;20821;-73
2023/12/06 10:59:31;;;;;;;8.80;4.90;;;;;;;4.44;100.00;100295.63;5035079;28;20307;-72
2023/12/06 11:01:57;;;;;;;10.50;5.57;;;;;;;4.36;100.00;100288.34;5056724;28;20583;-70
2023/12/06 11:04:27;;;;;;;8.17;4.80;;;;;;;4.26;100.00;100275.75;5056842;28;20201;-72
2023/12/06 11:07:06;;;;;;;10.03;5.50;;;;;;;4.39;100.00;100284.94;5049427;28;20223;-69
2023/12/06 11:10:20;;;;;;;8.03;5.00;;;;;;;4.45;100.00;100297.41;5034913;28;20548;-69
2023/12/06 11:13:20;;;;;;;7.47;4.40;;;;;;;4.40;100.00;100298.13;5050750;28;20205;-69
2023/12/06 11:16:07;;;;;;;8.00;5.07;;;;;;;4.48;100.00;100297.50;5054074;28;20574;-69
2023/12/06 11:18:46;;;;;;;9.07;5.27;;;;;;;4.46;100.00;100297.47;5051529;28;20208;-71
2023/12/06 11:21:14;;;;;;;8.17;4.50;;;;;;;4.53;100.00;100306.44;5049634;28;20693;-68
2023/12/06 11:23:41;;;;;;;8.13;5.07;;;;;;;4.54;100.00;100302.97;5033296;28;20209;-70
2023/12/06 11:26:10;;;;;;;10.47;4.83;;;;;;;4.54;100.00;100303.88;5057223;28;20253;-70
2023/12/06 11:28:41;;;;;;;10.30;5.63;;;;;;;4.60;100.00;100301.44;5058868;28;20568;-69